Time;durP1;ratioP1;P1;durP2;ratioP2;P2;SDS_P1;SDS_P2;PMS_P1;PMS_P2;Temp;Humidity;BMP_temperature;BMP_pressure;BME280_temperature;BME280_humidity;BME280_pressure;Samples;Min_cycle;Max_cycle;Signal;HPM_P1;HPM_P2
2022/04/20 00:02:20;;;;;;;9.70;5.78;;;28.50;90.90;;;;;;5105205;28;20097;-47
2022/04/20 00:04:46;;;;;;;13.70;6.00;;;28.50;91.00;;;;;;5105373;28;20031;-47
2022/04/20 00:07:13;;;;;;;10.82;5.50;;;28.50;91.20;;;;;;5104884;28;20015;-55
2022/04/20 00:09:40;;;;;;;13.88;5.72;;;28.50;91.30;;;;;;5105345;28;20260;-53
2022/04/20 00:12:08;;;;;;;10.80;5.40;;;28.60;91.60;;;;;;5102821;28;20039;-48
2022/04/20 00:14:35;;;;;;;10.38;5.30;;;28.50;91.70;;;;;;5106007;28;20036;-46
2022/04/20 00:17:01;;;;;;;9.32;4.68;;;28.50;91.60;;;;;;5105994;28;20258;-48
2022/04/20 00:19:29;;;;;;;11.48;3.75;;;28.50;91.60;;;;;;5105977;28;20020;-50
2022/04/20 00:21:56;;;;;;;13.63;4.28;;;28.50;91.80;;;;;;5094140;28;20081;-51
2022/04/20 00:24:22;;;;;;;13.13;3.80;;;28.50;91.70;;;;;;5093143;28;20032;-47
2022/04/20 00:26:49;;;;;;;23.50;5.30;;;28.50;91.60;;;;;;5095835;28;20028;-45
2022/04/20 00:29:15;;;;;;;17.75;4.40;;;28.50;91.60;;;;;;5105776;28;20389;-46
2022/04/20 00:31:42;;;;;;;21.13;4.20;;;28.50;91.70;;;;;;5101870;28;20024;-49
2022/04/20 00:34:09;;;;;;;18.58;4.45;;;28.40;91.80;;;;;;5101773;28;20248;-47
2022/04/20 00:36:35;;;;;;;16.77;4.60;;;28.40;91.70;;;;;;5105506;28;20043;-47
2022/04/20 00:39:02;;;;;;;14.82;3.70;;;28.50;91.80;;;;;;5097631;28;20025;-51
2022/04/20 00:41:29;;;;;;;9.95;3.33;;;28.40;91.80;;;;;;5090045;28;20308;-46
2022/04/20 00:43:55;;;;;;;8.32;3.53;;;28.40;91.80;;;;;;5085041;28;20035;-48
2022/04/20 00:46:25;;;;;;;16.40;4.53;;;28.40;91.90;;;;;;5084995;28;20036;-48
2022/04/20 00:48:52;;;;;;;13.45;4.78;;;28.40;92.10;;;;;;5085076;28;20020;-49
2022/04/20 00:51:20;;;;;;;16.92;4.80;;;28.40;92.30;;;;;;5084802;28;20047;-46
2022/04/20 00:53:46;;;;;;;18.60;4.85;;;28.40;92.20;;;;;;5084634;28;20055;-50
2022/04/20 00:56:14;;;;;;;17.23;4.40;;;28.40;92.00;;;;;;5083898;28;20032;-47
2022/04/20 00:58:43;;;;;;;13.60;4.10;;;28.40;92.10;;;;;;5084817;28;20063;-54
2022/04/20 01:01:10;;;;;;;17.17;3.80;;;28.40;92.00;;;;;;5084793;28;20028;-46
2022/04/20 01:03:37;;;;;;;16.17;3.70;;;28.40;92.10;;;;;;5084939;28;20020;-48
2022/04/20 01:06:07;;;;;;;8.15;2.90;;;28.40;92.20;;;;;;5084984;28;20040;-48
2022/04/20 01:08:34;;;;;;;12.75;3.65;;;28.30;92.00;;;;;;5084613;28;20063;-46
2022/04/20 01:11:00;;;;;;;14.07;3.90;;;28.40;92.10;;;;;;5084588;28;20274;-48
2022/04/20 01:13:27;;;;;;;13.57;3.60;;;28.30;92.00;;;;;;5084410;28;20028;-53
2022/04/20 01:15:54;;;;;;;12.93;3.65;;;28.40;92.10;;;;;;5084644;28;20030;-48
2022/04/20 01:18:21;;;;;;;11.70;2.95;;;28.30;92.10;;;;;;5084423;28;20017;-49
2022/04/20 01:20:47;;;;;;;15.32;3.08;;;28.30;92.10;;;;;;5084432;28;20255;-46
2022/04/20 01:23:14;;;;;;;10.10;2.95;;;28.30;92.10;;;;;;5099431;28;20091;-47
2022/04/20 01:25:42;;;;;;;9.63;2.83;;;28.30;92.20;;;;;;5084420;28;20312;-49
2022/04/20 01:28:11;;;;;;;12.82;3.13;;;28.30;92.20;;;;;;5084345;28;20035;-48
2022/04/20 01:30:38;;;;;;;12.35;3.00;;;28.30;92.20;;;;;;5084391;28;20115;-51
2022/04/20 01:33:05;;;;;;;13.07;3.08;;;28.30;92.30;;;;;;5084113;28;20029;-46
2022/04/20 01:35:31;;;;;;;13.93;4.22;;;28.20;92.20;;;;;;5083999;28;20038;-49
2022/04/20 01:37:58;;;;;;;20.30;3.63;;;28.20;91.90;;;;;;5084280;28;20024;-49
2022/04/20 01:40:24;;;;;;;49.00;6.53;;;28.20;91.70;;;;;;5084592;28;20023;-46
2022/04/20 01:42:51;;;;;;;194.15;17.08;;;28.20;91.50;;;;;;5084091;28;20036;-51
2022/04/20 01:45:18;;;;;;;65.70;8.55;;;28.20;91.20;;;;;;5084497;28;20078;-47
2022/04/20 01:47:44;;;;;;;21.38;4.03;;;28.20;91.10;;;;;;5084040;28;20029;-48
2022/04/20 01:50:13;;;;;;;24.33;4.50;;;28.20;90.60;;;;;;5085121;28;20086;-51
2022/04/20 01:52:40;;;;;;;17.55;3.53;;;28.20;90.60;;;;;;5084005;28;20032;-48
2022/04/20 01:55:07;;;;;;;23.48;3.92;;;28.20;90.50;;;;;;5083825;28;20072;-48
2022/04/20 01:57:35;;;;;;;17.92;3.70;;;28.20;90.40;;;;;;5084098;28;20032;-49
2022/04/20 02:00:01;;;;;;;18.23;3.60;;;28.10;90.40;;;;;;5084426;28;20088;-48
2022/04/20 02:02:40;;;;;;;12.63;3.75;;;28.10;90.10;;;;;;5084640;28;20267;-45
2022/04/20 02:05:12;;;;;;;17.13;3.25;;;28.10;89.80;;;;;;5084242;28;20051;-51
2022/04/20 02:07:39;;;;;;;13.02;3.30;;;28.10;89.60;;;;;;5083630;28;20335;-51
2022/04/20 02:10:07;;;;;;;16.17;3.35;;;28.10;89.70;;;;;;5095304;28;20032;-51
2022/04/20 02:12:33;;;;;;;11.55;2.92;;;28.10;88.40;;;;;;5103993;28;20104;-47
2022/04/20 02:15:00;;;;;;;9.48;2.70;;;28.10;87.50;;;;;;5098846;28;20016;-49
2022/04/20 02:17:27;;;;;;;8.63;2.78;;;28.10;87.70;;;;;;5096157;28;20032;-50
2022/04/20 02:19:59;;;;;;;8.27;2.25;;;28.10;87.10;;;;;;5084086;28;20036;-44
2022/04/20 02:22:26;;;;;;;8.98;2.53;;;28.10;87.40;;;;;;5083763;28;20079;-45
2022/04/20 02:24:52;;;;;;;9.23;2.53;;;28.10;86.90;;;;;;5083858;28;20176;-54
2022/04/20 02:27:19;;;;;;;8.55;2.50;;;28.10;86.80;;;;;;5083678;28;20309;-46
2022/04/20 02:29:47;;;;;;;7.97;2.38;;;28.10;86.70;;;;;;5084016;28;20024;-49
2022/04/20 02:32:14;;;;;;;11.20;2.75;;;28.10;86.60;;;;;;5083455;28;20033;-49
2022/04/20 02:34:40;;;;;;;10.40;2.58;;;28.00;84.80;;;;;;5084123;28;20223;-46
2022/04/20 02:37:09;;;;;;;9.07;2.22;;;28.10;85.00;;;;;;5083581;28;20021;-46
2022/04/20 02:39:37;;;;;;;5.40;2.00;;;28.10;84.10;;;;;;5083699;28;20028;-51
2022/04/20 02:42:06;;;;;;;10.23;2.50;;;28.00;83.70;;;;;;5083751;28;20340;-47
2022/04/20 02:44:34;;;;;;;11.70;2.10;;;28.00;83.70;;;;;;5083813;28;20023;-50
2022/04/20 02:47:01;;;;;;;8.52;2.38;;;28.00;84.50;;;;;;5083279;28;20070;-54
2022/04/20 02:49:28;;;;;;;9.85;2.03;;;28.00;84.30;;;;;;5083653;28;20024;-54
2022/04/20 02:51:54;;;;;;;6.82;2.22;;;28.00;84.20;;;;;;5083436;28;20036;-49
2022/04/20 02:54:21;;;;;;;9.38;2.42;;;28.00;84.70;;;;;;5083004;28;20055;-47
2022/04/20 02:56:48;;;;;;;5.70;1.92;;;28.00;84.40;;;;;;5083312;28;20017;-55
2022/04/20 02:59:15;;;;;;;7.28;2.70;;;27.90;83.80;;;;;;5083707;28;20285;-48
2022/04/20 03:01:41;;;;;;;8.18;2.30;;;27.90;84.00;;;;;;5083267;28;20036;-46
2022/04/20 03:04:08;;;;;;;13.38;2.72;;;28.00;83.50;;;;;;5083551;28;20246;-50
2022/04/20 03:06:34;;;;;;;8.95;2.25;;;27.90;83.90;;;;;;5083197;28;20029;-46
2022/04/20 03:09:01;;;;;;;10.48;2.22;;;28.00;83.90;;;;;;5083281;28;20131;-47
2022/04/20 03:11:28;;;;;;;7.40;2.00;;;27.90;82.60;;;;;;5083206;28;20024;-46
2022/04/20 03:13:56;;;;;;;8.15;2.00;;;27.90;81.70;;;;;;5083485;28;20028;-47
2022/04/20 03:16:24;;;;;;;7.78;2.17;;;27.90;82.40;;;;;;5101620;28;20336;-49
2022/04/20 03:18:51;;;;;;;7.88;2.40;;;27.90;81.60;;;;;;5086163;28;20021;-47
2022/04/20 03:21:20;;;;;;;9.45;2.63;;;27.80;81.90;;;;;;5086800;28;20028;-49
2022/04/20 03:23:46;;;;;;;4.90;2.25;;;27.90;82.60;;;;;;5086772;28;20028;-47
2022/04/20 03:26:13;;;;;;;7.90;2.40;;;27.90;82.40;;;;;;5086725;28;20027;-48
2022/04/20 03:28:41;;;;;;;10.85;3.72;;;27.80;82.50;;;;;;5086783;28;20033;-52
2022/04/20 03:31:07;;;;;;;10.82;3.00;;;27.80;82.40;;;;;;5086435;28;20032;-49
2022/04/20 03:33:34;;;;;;;10.93;4.22;;;27.80;82.70;;;;;;5086442;28;20161;-51
2022/04/20 03:36:02;;;;;;;10.45;4.85;;;27.80;82.90;;;;;;5099013;28;20028;-51
2022/04/20 03:38:29;;;;;;;10.07;4.43;;;27.80;82.60;;;;;;5097849;28;20033;-49
2022/04/20 03:40:56;;;;;;;12.65;6.40;;;27.70;83.10;;;;;;5086328;28;20054;-49
2022/04/20 03:43:23;;;;;;;8.60;3.88;;;27.80;83.50;;;;;;5086492;28;20032;-46
2022/04/20 03:45:50;;;;;;;9.23;3.78;;;27.80;82.70;;;;;;5088577;28;20099;-53
2022/04/20 03:48:17;;;;;;;8.68;3.70;;;27.80;82.90;;;;;;5105955;28;20074;-48
2022/04/20 03:50:45;;;;;;;10.57;4.05;;;27.80;83.20;;;;;;5088398;28;20021;-46
2022/04/20 03:53:12;;;;;;;12.70;4.68;;;27.80;83.70;;;;;;5086363;28;20039;-49
2022/04/20 03:55:38;;;;;;;13.60;4.70;;;27.80;84.60;;;;;;5095608;28;20060;-48
2022/04/20 03:58:05;;;;;;;12.27;4.13;;;27.80;85.60;;;;;;5099978;28;20016;-48
2022/04/20 04:00:32;;;;;;;12.82;3.95;;;27.80;86.00;;;;;;5105321;28;20099;-50
2022/04/20 04:02:59;;;;;;;53.60;7.47;;;27.70;87.00;;;;;;5105145;28;20015;-47
2022/04/20 04:05:25;;;;;;;31.60;6.47;;;27.60;87.20;;;;;;5103132;28;20016;-50
2022/04/20 04:07:52;;;;;;;24.27;4.70;;;27.50;88.60;;;;;;5105231;28;20278;-46
2022/04/20 04:10:19;;;;;;;19.20;5.00;;;27.40;88.90;;;;;;5106304;28;20020;-46
2022/04/20 04:12:45;;;;;;;18.95;4.07;;;27.40;89.10;;;;;;5106025;28;20020;-49
2022/04/20 04:15:12;;;;;;;12.98;4.07;;;27.40;89.10;;;;;;5106443;28;20095;-49
2022/04/20 04:17:38;;;;;;;17.10;4.25;;;27.40;89.50;;;;;;5105861;28;20016;-49
2022/04/20 04:20:07;;;;;;;13.88;4.30;;;27.40;89.50;;;;;;5106271;28;20231;-50
2022/04/20 04:22:37;;;;;;;17.45;4.55;;;27.40;89.50;;;;;;5105801;28;20085;-47
2022/04/20 04:25:03;;;;;;;29.98;5.78;;;27.30;90.10;;;;;;5106295;28;20032;-48
2022/04/20 04:27:30;;;;;;;16.88;4.15;;;27.10;90.20;;;;;;5102732;28;20197;-48
2022/04/20 04:29:58;;;;;;;28.60;5.80;;;27.10;90.20;;;;;;5096316;28;20036;-47
2022/04/20 04:32:24;;;;;;;24.38;5.70;;;27.10;90.40;;;;;;5105494;28;20024;-45
2022/04/20 04:34:51;;;;;;;13.48;4.30;;;27.20;90.40;;;;;;5106069;28;20024;-48
2022/04/20 04:37:17;;;;;;;15.45;4.05;;;27.10;90.50;;;;;;5105874;28;20036;-46
2022/04/20 04:39:44;;;;;;;11.60;3.63;;;27.10;90.00;;;;;;5105730;28;20016;-48
2022/04/20 04:42:11;;;;;;;11.80;3.47;;;27.10;90.30;;;;;;5105505;28;20022;-46
2022/04/20 04:44:37;;;;;;;12.80;3.45;;;27.10;91.00;;;;;;5106012;28;20034;-47
2022/04/20 04:49:50;;;;;;;9.25;3.00;;;27.10;90.50;;;;;;5105866;28;20057;-47
2022/04/20 04:52:17;;;;;;;7.78;3.00;;;27.10;90.40;;;;;;5105052;28;20093;-47
2022/04/20 04:54:43;;;;;;;11.93;3.47;;;27.20;90.10;;;;;;5105135;28;20092;-52
2022/04/20 04:57:12;;;;;;;10.10;3.03;;;27.10;89.90;;;;;;5105437;28;20074;-46
2022/04/20 04:59:40;;;;;;;7.93;3.28;;;27.10;89.30;;;;;;5105314;28;20032;-47
2022/04/20 05:02:08;;;;;;;8.50;3.00;;;27.10;89.60;;;;;;5105076;28;20020;-45
2022/04/20 05:04:36;;;;;;;10.25;3.15;;;27.10;89.30;;;;;;5105422;28;20020;-48
2022/04/20 05:07:04;;;;;;;8.93;3.20;;;27.10;89.00;;;;;;5105021;28;20062;-45
2022/04/20 05:09:30;;;;;;;7.85;3.10;;;27.10;89.30;;;;;;5105221;28;20019;-45
2022/04/20 05:11:58;;;;;;;8.23;3.15;;;27.10;89.00;;;;;;5104886;28;20028;-47
2022/04/20 05:14:25;;;;;;;11.57;3.65;;;27.10;89.50;;;;;;5105100;28;20078;-51
2022/04/20 05:16:52;;;;;;;9.05;3.08;;;27.10;89.50;;;;;;5104918;28;20208;-50
2022/04/20 05:19:19;;;;;;;7.22;3.35;;;27.00;89.10;;;;;;5105371;28;20016;-44
2022/04/20 05:21:46;;;;;;;9.18;3.72;;;27.00;89.00;;;;;;5104653;28;20142;-47
2022/04/20 05:24:13;;;;;;;8.43;3.55;;;27.00;88.60;;;;;;5105124;28;20087;-51
2022/04/20 05:26:41;;;;;;;8.38;3.97;;;27.00;89.20;;;;;;5104857;28;20024;-47
2022/04/20 05:29:07;;;;;;;8.63;4.03;;;27.00;88.90;;;;;;5104837;28;20020;-48
2022/04/20 05:31:34;;;;;;;7.05;4.03;;;26.90;88.90;;;;;;5104505;28;20020;-49
2022/04/20 05:34:02;;;;;;;8.98;4.75;;;26.90;88.70;;;;;;5104754;28;20012;-45
2022/04/20 05:41:39;;;;;;;11.75;4.80;;;26.90;88.80;;;;;;5104233;28;20036;-46
2022/04/20 05:42:02;;;;;;;9.68;4.93;;;26.90;88.80;;;;;;5103996;28;20216;-49
2022/04/20 05:44:29;;;;;;;8.95;4.43;;;26.90;88.80;;;;;;5104695;28;20020;-45
2022/04/20 05:46:55;;;;;;;14.40;4.75;;;26.90;88.80;;;;;;5104397;28;20027;-47
2022/04/20 05:49:22;;;;;;;9.57;4.75;;;26.90;89.30;;;;;;5104725;28;20304;-52
2022/04/20 05:51:49;;;;;;;47.30;8.32;;;26.80;89.20;;;;;;5104428;28;20224;-52
2022/04/20 05:54:15;;;;;;;15.88;5.28;;;26.60;89.60;;;;;;5103969;28;20085;-51
2022/04/20 05:56:42;;;;;;;32.08;5.68;;;26.60;89.70;;;;;;5104205;28;20020;-47
2022/04/20 05:59:09;;;;;;;22.67;5.55;;;26.60;90.00;;;;;;5104449;28;20020;-46
2022/04/20 06:01:35;;;;;;;15.60;5.03;;;26.60;89.70;;;;;;5104347;28;20032;-48
2022/04/20 06:04:02;;;;;;;15.20;5.00;;;26.60;89.50;;;;;;5104303;28;20225;-48
2022/04/20 06:06:29;;;;;;;21.38;4.45;;;26.60;89.50;;;;;;5104184;28;20127;-54
2022/04/20 06:08:56;;;;;;;13.32;4.70;;;26.70;89.90;;;;;;5104204;28;20028;-50
2022/04/20 06:11:24;;;;;;;14.18;4.72;;;26.70;90.00;;;;;;5104021;28;20032;-47
2022/04/20 06:13:51;;;;;;;12.68;4.53;;;26.70;90.10;;;;;;5104175;28;20020;-48
2022/04/20 06:16:18;;;;;;;9.20;4.55;;;26.80;90.00;;;;;;5103891;28;20093;-45
2022/04/20 06:18:45;;;;;;;16.73;5.10;;;26.80;89.70;;;;;;5103997;28;20043;-52
2022/04/20 06:21:11;;;;;;;12.88;4.55;;;26.90;90.10;;;;;;5103959;28;20221;-50
2022/04/20 06:23:38;;;;;;;25.67;5.50;;;26.90;89.90;;;;;;5104008;28;20028;-48
2022/04/20 06:26:05;;;;;;;17.55;5.50;;;26.90;90.00;;;;;;5103729;28;20208;-46
2022/04/20 06:28:32;;;;;;;15.18;5.03;;;26.90;90.20;;;;;;5103978;28;20293;-52
2022/04/20 06:30:58;;;;;;;13.98;5.18;;;27.00;90.10;;;;;;5103892;28;20035;-45
2022/04/20 06:33:25;;;;;;;14.13;5.90;;;26.90;90.10;;;;;;5103890;28;20332;-47
2022/04/20 06:35:53;;;;;;;25.55;8.80;;;26.90;90.30;;;;;;5104146;28;20035;-46
2022/04/20 06:38:21;;;;;;;20.92;6.55;;;26.90;90.60;;;;;;5103727;28;20020;-49
2022/04/20 06:40:48;;;;;;;24.30;7.93;;;26.90;90.70;;;;;;5103640;28;20316;-45
2022/04/20 06:43:15;;;;;;;23.83;7.88;;;26.70;91.20;;;;;;5103756;28;20051;-48
2022/04/20 06:45:41;;;;;;;21.35;7.30;;;26.60;91.00;;;;;;5103798;28;20055;-50
2022/04/20 06:48:08;;;;;;;19.60;7.40;;;26.50;91.30;;;;;;5103539;28;20050;-48
2022/04/20 06:50:36;;;;;;;25.70;7.70;;;26.50;91.50;;;;;;5103772;28;20028;-53
2022/04/20 06:58:38;;;;;;;23.35;7.68;;;26.60;91.90;;;;;;5107511;28;20065;-45
2022/04/20 07:01:06;;;;;;;21.13;7.20;;;26.60;91.80;;;;;;5107532;28;20205;-48
2022/04/20 07:03:32;;;;;;;15.75;7.10;;;26.60;91.90;;;;;;5107411;28;20216;-44
2022/04/20 07:06:00;;;;;;;14.25;7.53;;;26.60;92.10;;;;;;5107207;28;20312;-49
2022/04/20 07:08:28;;;;;;;14.18;7.20;;;26.60;92.30;;;;;;5107644;28;20087;-49
2022/04/20 07:10:54;;;;;;;18.38;6.75;;;26.50;92.30;;;;;;5107567;28;20051;-50
2022/04/20 07:13:21;;;;;;;13.85;6.45;;;26.60;92.30;;;;;;5107085;28;20020;-52
2022/04/20 07:15:48;;;;;;;14.82;6.80;;;26.60;92.30;;;;;;5107151;28;20020;-55
2022/04/20 07:18:15;;;;;;;17.63;6.50;;;26.60;92.30;;;;;;5107059;28;20051;-57
2022/04/20 07:20:42;;;;;;;12.93;6.40;;;26.60;92.30;;;;;;5106935;28;20059;-54
2022/04/20 07:23:10;;;;;;;13.35;5.88;;;26.60;92.30;;;;;;5107095;28;20024;-47
2022/04/20 07:25:38;;;;;;;10.75;6.40;;;26.60;92.30;;;;;;5106979;28;20040;-47
2022/04/20 07:28:07;;;;;;;10.68;6.10;;;26.60;92.10;;;;;;5106920;28;20020;-50
2022/04/20 07:30:36;;;;;;;14.93;6.22;;;26.60;92.30;;;;;;5107230;28;20024;-53
2022/04/20 07:33:04;;;;;;;12.77;5.80;;;26.60;92.20;;;;;;5106935;28;20039;-50
2022/04/20 07:35:31;;;;;;;10.55;5.68;;;26.60;92.10;;;;;;5106812;28;20092;-53
2022/04/20 07:37:58;;;;;;;11.45;5.90;;;26.60;92.00;;;;;;5107004;28;20193;-49
2022/04/20 07:40:25;;;;;;;14.95;5.88;;;26.60;92.00;;;;;;5107234;28;20099;-47
2022/04/20 07:42:54;;;;;;;14.20;5.25;;;26.60;91.80;;;;;;5106516;28;20182;-48
2022/04/20 07:45:21;;;;;;;12.45;5.80;;;26.60;91.90;;;;;;5107286;28;20204;-46
2022/04/20 07:47:48;;;;;;;9.60;5.80;;;26.60;92.00;;;;;;5106532;28;20220;-52
2022/04/20 07:50:23;;;;;;;10.80;5.47;;;26.60;91.90;;;;;;5106941;28;20024;-51
2022/04/20 07:53:00;;;;;;;11.02;5.60;;;26.50;91.80;;;;;;5106638;28;20027;-47
2022/04/20 07:55:29;;;;;;;9.52;5.60;;;26.50;91.70;;;;;;5105995;28;20143;-49
2022/04/20 07:57:59;;;;;;;14.68;6.00;;;26.50;91.80;;;;;;5106705;28;20035;-48
2022/04/20 08:00:27;;;;;;;9.55;5.63;;;26.40;91.80;;;;;;5106912;28;20035;-48
2022/04/20 08:03:15;;;;;;;12.30;5.88;;;26.40;91.90;;;;;;5106198;28;20031;-47
2022/04/20 08:05:43;;;;;;;8.23;4.95;;;26.40;92.00;;;;;;5105857;28;20036;-50
2022/04/20 08:08:10;;;;;;;11.10;4.93;;;26.50;92.00;;;;;;5106324;28;20032;-44
2022/04/20 08:10:38;;;;;;;7.45;4.97;;;26.40;92.00;;;;;;5106423;28;20149;-47
2022/04/20 08:15:50;;;;;;;12.65;5.50;;;26.30;92.30;;;;;;5106030;28;20039;-45
2022/04/20 08:18:17;;;;;;;10.63;5.30;;;26.30;92.60;;;;;;5106209;28;20343;-49
2022/04/20 08:20:44;;;;;;;10.00;4.97;;;26.30;92.60;;;;;;5105770;28;20317;-49
2022/04/20 08:23:10;;;;;;;11.30;4.80;;;26.30;92.70;;;;;;5105801;28;20043;-47
2022/04/20 08:25:37;;;;;;;13.40;6.15;;;26.20;92.80;;;;;;5105904;28;20058;-48
2022/04/20 08:28:04;;;;;;;9.95;5.30;;;26.00;93.00;;;;;;5105822;28;20032;-50
2022/04/20 08:30:30;;;;;;;10.90;5.05;;;25.90;93.30;;;;;;5105677;28;20095;-54
2022/04/20 08:32:57;;;;;;;11.75;5.03;;;26.00;93.30;;;;;;5105733;28;20061;-52
2022/04/20 08:35:23;;;;;;;7.88;4.88;;;26.10;93.40;;;;;;5105896;28;20028;-52
2022/04/20 08:37:50;;;;;;;9.05;5.18;;;26.10;93.40;;;;;;5105585;28;20300;-47
2022/04/20 08:40:17;;;;;;;8.60;5.25;;;26.10;93.60;;;;;;5106086;28;20183;-50
2022/04/20 08:42:44;;;;;;;8.45;5.03;;;26.10;93.20;;;;;;5105425;28;20035;-49
2022/04/20 08:45:12;;;;;;;10.00;5.47;;;26.20;93.20;;;;;;5105867;28;20035;-49
2022/04/20 08:47:40;;;;;;;10.13;5.95;;;26.20;93.00;;;;;;5105360;28;20103;-44
2022/04/20 08:50:09;;;;;;;12.75;5.88;;;26.20;93.30;;;;;;5105762;28;20059;-50
2022/04/20 08:52:42;;;;;;;7.03;5.22;;;26.10;93.00;;;;;;5105332;28;20024;-44
2022/04/20 08:55:11;;;;;;;13.10;5.72;;;26.10;93.20;;;;;;5105190;28;20381;-45
2022/04/20 08:57:39;;;;;;;9.32;6.07;;;26.10;93.20;;;;;;5105093;28;20032;-44
2022/04/20 09:00:09;;;;;;;12.48;7.05;;;26.10;93.20;;;;;;5105615;28;20292;-48
2022/04/20 09:02:36;;;;;;;12.30;5.85;;;26.10;93.10;;;;;;5105175;28;20024;-46
2022/04/20 09:05:04;;;;;;;9.48;5.55;;;26.10;93.10;;;;;;5105404;28;20032;-49
2022/04/20 09:07:31;;;;;;;11.05;6.20;;;26.10;93.10;;;;;;5105034;28;20220;-51
2022/04/20 09:10:00;;;;;;;13.02;6.10;;;26.10;93.20;;;;;;5105422;28;20306;-48
2022/04/20 09:12:28;;;;;;;10.38;5.88;;;26.10;93.40;;;;;;5105149;28;20052;-51
2022/04/20 09:14:56;;;;;;;12.52;5.57;;;26.10;93.40;;;;;;5105173;28;20028;-46
2022/04/20 09:17:26;;;;;;;14.10;6.00;;;26.10;93.40;;;;;;5104000;28;20069;-50
2022/04/20 09:19:55;;;;;;;9.23;5.72;;;26.00;93.40;;;;;;5105142;28;20027;-55
2022/04/20 09:22:32;;;;;;;10.52;5.43;;;26.00;93.50;;;;;;5104749;28;20034;-54
2022/04/20 09:25:11;;;;;;;10.05;5.40;;;26.00;93.40;;;;;;5104935;28;20322;-48
2022/04/20 09:27:40;;;;;;;11.02;5.47;;;26.00;93.40;;;;;;5104676;28;20039;-53
2022/04/20 09:30:13;;;;;;;9.40;5.45;;;26.00;93.50;;;;;;5104730;28;20027;-46
2022/04/20 09:32:42;;;;;;;11.55;5.60;;;26.10;93.50;;;;;;5104491;28;20032;-45
2022/04/20 09:35:12;;;;;;;13.13;5.78;;;26.10;93.50;;;;;;5105059;28;20241;-50
2022/04/20 09:37:41;;;;;;;10.73;5.90;;;26.10;93.50;;;;;;5104522;28;20080;-46
2022/04/20 09:40:13;;;;;;;10.82;6.00;;;26.10;93.60;;;;;;5104919;28;20252;-51
2022/04/20 09:43:02;;;;;;;11.23;5.82;;;26.10;93.50;;;;;;5104448;28;20038;-50
2022/04/20 09:45:31;;;;;;;11.60;5.50;;;26.10;93.50;;;;;;5104317;28;20096;-48
2022/04/20 09:50:43;;;;;;;7.47;4.43;;;26.10;93.40;;;;;;5104742;28;20046;-46
2022/04/20 09:53:13;;;;;;;11.60;5.25;;;26.10;93.30;;;;;;5104124;28;20216;-51
2022/04/20 09:55:41;;;;;;;15.07;5.47;;;26.10;93.30;;;;;;5104171;28;20119;-50
2022/04/20 09:58:11;;;;;;;9.93;4.47;;;26.10;93.30;;;;;;5104152;28;20016;-47
2022/04/20 10:00:39;;;;;;;11.20;4.88;;;26.20;93.20;;;;;;5103998;28;20028;-46
2022/04/20 10:03:06;;;;;;;8.32;4.53;;;26.10;93.20;;;;;;5104023;28;20045;-47
2022/04/20 10:05:33;;;;;;;11.70;4.93;;;26.10;93.20;;;;;;5104185;28;20340;-49
2022/04/20 10:08:01;;;;;;;8.32;3.88;;;26.10;93.20;;;;;;5103902;28;20308;-44
2022/04/20 10:10:33;;;;;;;8.88;4.65;;;26.10;93.20;;;;;;5104025;28;20032;-50
2022/04/20 10:13:03;;;;;;;9.18;4.10;;;26.10;93.10;;;;;;5104027;28;20077;-47
2022/04/20 10:18:28;;;;;;;8.68;4.45;;;26.10;93.10;;;;;;5104103;28;20031;-50
2022/04/20 10:21:02;;;;;;;9.63;4.60;;;26.10;93.00;;;;;;5103954;28;20048;-45
2022/04/20 10:23:29;;;;;;;9.82;4.57;;;26.10;93.00;;;;;;5103977;28;20061;-50
2022/04/20 10:25:58;;;;;;;9.38;4.75;;;26.00;93.00;;;;;;5103730;28;20127;-51
2022/04/20 10:28:48;;;;;;;7.95;4.60;;;25.90;93.10;;;;;;5106373;28;20024;-46
2022/04/20 10:31:18;;;;;;;10.48;3.90;;;25.90;93.20;;;;;;5107890;28;20032;-48
2022/04/20 10:33:46;;;;;;;7.82;4.30;;;25.80;93.20;;;;;;5108066;28;20227;-52
2022/04/20 10:36:16;;;;;;;7.25;4.38;;;25.90;93.20;;;;;;5107889;28;20077;-46
2022/04/20 10:38:48;;;;;;;7.30;3.67;;;25.80;93.10;;;;;;5107856;28;20092;-46
2022/04/20 10:41:19;;;;;;;11.98;4.80;;;25.80;93.20;;;;;;5107850;28;20345;-57
2022/04/20 10:44:03;;;;;;;12.07;4.70;;;25.90;93.10;;;;;;5107865;28;20035;-51
2022/04/20 10:46:29;;;;;;;8.82;4.20;;;25.80;93.10;;;;;;5107610;28;20039;-49
2022/04/20 10:49:07;;;;;;;11.30;4.20;;;25.90;93.00;;;;;;5107713;28;20047;-45
2022/04/20 10:51:46;;;;;;;8.73;4.25;;;25.90;93.00;;;;;;5107499;28;20031;-45
2022/04/20 10:54:22;;;;;;;9.43;4.65;;;25.90;92.90;;;;;;5107526;28;20347;-49
2022/04/20 10:57:09;;;;;;;11.23;4.80;;;25.90;92.60;;;;;;5107554;28;20048;-47
2022/04/20 10:59:39;;;;;;;10.25;6.57;;;25.90;92.50;;;;;;5107468;28;20039;-44
2022/04/20 11:02:08;;;;;;;20.52;7.07;;;25.90;92.50;;;;;;5107585;28;20036;-47
2022/04/20 11:04:48;;;;;;;21.63;5.70;;;25.90;92.40;;;;;;5107863;28;20024;-50
2022/04/20 11:07:20;;;;;;;20.27;5.30;;;25.90;92.30;;;;;;5107382;28;20064;-55
2022/04/20 11:09:57;;;;;;;20.40;5.57;;;25.90;92.30;;;;;;5107652;28;20100;-56
2022/04/20 11:18:39;;;;;;;10.98;5.00;;;25.80;91.90;;;;;;5107047;28;20024;-45
2022/04/20 11:21:06;;;;;;;12.93;4.60;;;25.80;91.60;;;;;;5127436;28;20020;-49
2022/04/20 11:23:52;;;;;;;12.85;4.93;;;25.80;91.70;;;;;;5127438;28;20027;-45
2022/04/20 11:26:24;;;;;;;11.57;4.80;;;25.80;91.50;;;;;;5112698;28;20036;-50
2022/04/20 11:28:52;;;;;;;10.10;4.60;;;25.80;91.60;;;;;;5106963;28;20028;-50
2022/04/20 11:31:18;;;;;;;7.15;4.38;;;25.80;91.40;;;;;;5107477;28;20024;-48
2022/04/20 11:33:45;;;;;;;8.88;3.80;;;25.80;91.40;;;;;;5106249;28;20083;-53
2022/04/20 11:36:15;;;;;;;8.68;4.65;;;25.80;91.30;;;;;;5106874;28;20036;-55
2022/04/20 11:38:50;;;;;;;9.85;4.63;;;25.80;91.30;;;;;;5104477;28;20024;-51
2022/04/20 11:41:19;;;;;;;13.25;6.63;;;25.80;91.40;;;;;;5104662;28;20103;-47
2022/04/20 11:43:47;;;;;;;14.93;8.80;;;25.80;91.40;;;;;;5104743;28;20028;-53
2022/04/20 11:46:14;;;;;;;12.57;6.18;;;25.80;91.40;;;;;;5104766;28;20031;-48
2022/04/20 11:48:53;;;;;;;10.80;5.40;;;25.80;91.30;;;;;;5104778;28;20113;-48
2022/04/20 11:51:25;;;;;;;8.32;5.22;;;25.80;91.50;;;;;;5104679;28;20027;-52
2022/04/20 11:53:52;;;;;;;8.97;5.47;;;25.90;91.50;;;;;;5105651;28;20036;-50
2022/04/20 11:56:33;;;;;;;11.30;5.07;;;25.90;91.70;;;;;;5106355;28;20555;-52
2022/04/20 11:59:01;;;;;;;9.90;4.68;;;25.90;91.80;;;;;;5106490;28;20384;-53
2022/04/20 12:01:30;;;;;;;11.88;4.97;;;26.00;92.10;;;;;;5106465;28;20227;-48
2022/04/20 12:03:57;;;;;;;9.93;4.70;;;26.00;92.10;;;;;;5106280;28;20023;-56
2022/04/20 12:06:24;;;;;;;9.27;4.93;;;26.00;92.40;;;;;;5106444;28;20202;-49
2022/04/20 12:08:55;;;;;;;11.35;5.47;;;26.00;92.30;;;;;;5106303;28;20206;-47
2022/04/20 12:11:23;;;;;;;11.55;5.90;;;26.00;92.40;;;;;;5105506;28;20319;-51
2022/04/20 12:13:56;;;;;;;11.07;5.85;;;26.10;92.50;;;;;;5106340;28;20249;-50
2022/04/20 12:16:23;;;;;;;11.82;6.65;;;26.10;92.60;;;;;;5106150;28;20028;-54
2022/04/20 12:18:52;;;;;;;12.25;7.00;;;26.10;92.70;;;;;;5106431;28;20076;-48
2022/04/20 12:21:42;;;;;;;10.95;6.18;;;26.20;92.60;;;;;;5105900;28;20020;-55
2022/04/20 12:24:18;;;;;;;11.65;5.95;;;26.10;92.60;;;;;;5106133;28;20056;-56
2022/04/20 12:26:46;;;;;;;8.70;5.70;;;26.20;92.70;;;;;;5106003;28;20260;-56
2022/04/20 12:29:14;;;;;;;12.07;5.80;;;26.20;92.70;;;;;;5106030;28;20051;-49
2022/04/20 12:31:43;;;;;;;10.85;5.22;;;26.20;92.80;;;;;;5105978;28;20020;-49
2022/04/20 12:34:13;;;;;;;12.23;5.50;;;26.20;92.90;;;;;;5106021;28;20059;-53
2022/04/20 12:37:30;;;;;;;14.00;5.05;;;26.30;92.90;;;;;;5105633;28;20047;-48
2022/04/20 12:39:58;;;;;;;12.32;5.10;;;26.30;92.80;;;;;;5090500;28;20028;-47
2022/04/20 12:42:25;;;;;;;9.75;4.63;;;26.30;93.00;;;;;;5105538;28;20024;-53
2022/04/20 12:45:02;;;;;;;10.65;4.63;;;26.30;93.00;;;;;;5105715;28;20189;-49
2022/04/20 12:47:28;;;;;;;13.55;4.97;;;26.30;93.10;;;;;;5105726;28;20177;-53
2022/04/20 12:50:03;;;;;;;18.38;4.72;;;26.40;93.10;;;;;;5106168;28;20181;-48
2022/04/20 12:52:31;;;;;;;9.02;4.30;;;26.40;93.00;;;;;;5105293;28;20031;-51
2022/04/20 12:55:08;;;;;;;8.55;4.35;;;26.40;93.00;;;;;;5105068;28;20093;-46
2022/04/20 13:03:13;;;;;;;8.88;4.00;;;26.40;93.30;;;;;;5103578;28;20065;-51
2022/04/20 13:05:42;;;;;;;11.23;4.50;;;26.50;93.40;;;;;;5092126;28;20055;-48
2022/04/20 13:08:10;;;;;;;7.47;3.70;;;26.50;93.00;;;;;;5105056;28;20267;-50
2022/04/20 13:10:39;;;;;;;8.55;3.75;;;26.50;93.30;;;;;;5105480;28;20039;-48
2022/04/20 13:13:07;;;;;;;9.27;4.10;;;26.50;93.40;;;;;;5104922;28;20340;-50
2022/04/20 13:15:34;;;;;;;6.75;3.50;;;26.60;93.00;;;;;;5105289;28;20036;-54
2022/04/20 13:18:01;;;;;;;9.38;4.25;;;26.60;93.10;;;;;;5104997;28;20019;-50
2022/04/20 13:20:29;;;;;;;12.80;4.10;;;26.60;93.20;;;;;;5104891;28;20028;-55